FIN50A ESSA-ENBR
Flight info
| Callsign | FIN50A |
|---|---|
| Flight time | 1h 11m |
| Altitude | 38000 |
| Route | ARS N623 IBGAX DCT EBURI N623 ESEBA DCT ATLAP DCT PESUR |
| Aircraft | A20N/M-SDE2E3FGHIRWXY/LB1 |
Departure
| Time | 2026-05-06 17:10 |
|---|---|
| Airport | Stockholm-Arlanda Airport (ESSA) |
Arrival
| Time | 2026-05-06 18:21 |
|---|---|
| Airport | Bergen Airport, Flesland (ENBR) |
| Time | Latitude | Longitude | Altitude | Speed | Heading |
|---|---|---|---|---|---|
| 2026-05-06 16:43 | 59.64467 | 17.92635 | 137 ft | 0 kts | 57° |
| 2026-05-06 16:58 | 59.64466 | 17.92633 | 137 ft | 1 kts | 57° |
| 2026-05-06 16:58 | 59.64462 | 17.92621 | 137 ft | 1 kts | 57° |
| 2026-05-06 16:58 | 59.64458 | 17.92608 | 137 ft | 1 kts | 57° |
| 2026-05-06 16:59 | 59.64454 | 17.92595 | 137 ft | 1 kts | 57° |
| 2026-05-06 16:59 | 59.64450 | 17.92583 | 137 ft | 1 kts | 57° |
| 2026-05-06 16:59 | 59.64445 | 17.92570 | 137 ft | 1 kts | 57° |
| 2026-05-06 16:59 | 59.64441 | 17.92557 | 137 ft | 1 kts | 57° |
| 2026-05-06 17:00 | 59.64437 | 17.92545 | 137 ft | 1 kts | 57° |
| 2026-05-06 17:00 | 59.64433 | 17.92532 | 137 ft | 1 kts | 57° |
| 2026-05-06 17:00 | 59.64426 | 17.92512 | 137 ft | 2 kts | 52° |
| 2026-05-06 17:00 | 59.64418 | 17.92493 | 137 ft | 2 kts | 43° |
| 2026-05-06 17:01 | 59.64408 | 17.92478 | 137 ft | 2 kts | 36° |
| 2026-05-06 17:01 | 59.64398 | 17.92463 | 137 ft | 2 kts | 36° |
| 2026-05-06 17:01 | 59.64388 | 17.92448 | 137 ft | 2 kts | 36° |
| 2026-05-06 17:01 | 59.64374 | 17.92429 | 137 ft | 3 kts | 34° |
| 2026-05-06 17:02 | 59.64355 | 17.92405 | 137 ft | 2 kts | 30° |
| 2026-05-06 17:02 | 59.64341 | 17.92390 | 137 ft | 2 kts | 18° |
| 2026-05-06 17:02 | 59.64324 | 17.92384 | 137 ft | 2 kts | 355° |
| 2026-05-06 17:02 | 59.64316 | 17.92386 | 137 ft | 1 kts | 345° |
| 2026-05-06 17:03 | 59.64311 | 17.92388 | 137 ft | 0 kts | 318° |
| 2026-05-06 17:04 | 59.64313 | 17.92380 | 137 ft | 2 kts | 300° |
| 2026-05-06 17:04 | 59.64329 | 17.92325 | 137 ft | 7 kts | 300° |
| 2026-05-06 17:04 | 59.64361 | 17.92215 | 137 ft | 11 kts | 300° |
| 2026-05-06 17:04 | 59.64377 | 17.92159 | 137 ft | 3 kts | 300° |
| 2026-05-06 17:05 | 59.64390 | 17.92116 | 137 ft | 8 kts | 300° |
| 2026-05-06 17:05 | 59.64452 | 17.91957 | 137 ft | 14 kts | 339° |
| 2026-05-06 17:05 | 59.64553 | 17.91980 | 137 ft | 16 kts | 13° |
| 2026-05-06 17:05 | 59.64672 | 17.92031 | 137 ft | 19 kts | 11° |
| 2026-05-06 17:06 | 59.64808 | 17.92081 | 137 ft | 20 kts | 9° |
| 2026-05-06 17:06 | 59.64951 | 17.92130 | 138 ft | 21 kts | 10° |
| 2026-05-06 17:06 | 59.65101 | 17.92186 | 138 ft | 20 kts | 11° |
| 2026-05-06 17:06 | 59.65194 | 17.92223 | 138 ft | 21 kts | 12° |
| 2026-05-06 17:07 | 59.65348 | 17.92272 | 138 ft | 24 kts | 8° |
| 2026-05-06 17:07 | 59.65507 | 17.92326 | 138 ft | 21 kts | 11° |
| 2026-05-06 17:07 | 59.65658 | 17.92387 | 137 ft | 22 kts | 11° |
| 2026-05-06 17:07 | 59.65810 | 17.92447 | 138 ft | 22 kts | 11° |
| 2026-05-06 17:08 | 59.66005 | 17.92522 | 138 ft | 22 kts | 10° |
| 2026-05-06 17:08 | 59.66110 | 17.92549 | 138 ft | 23 kts | 8° |
| 2026-05-06 17:08 | 59.66273 | 17.92614 | 138 ft | 21 kts | 12° |
| 2026-05-06 17:08 | 59.66413 | 17.92670 | 138 ft | 21 kts | 10° |
| 2026-05-06 17:09 | 59.66554 | 17.92599 | 138 ft | 22 kts | 337° |
| 2026-05-06 17:09 | 59.66616 | 17.92481 | 140 ft | 8 kts | 245° |
| 2026-05-06 17:09 | 59.66561 | 17.92360 | 141 ft | 14 kts | 182° |
| 2026-05-06 17:09 | 59.66365 | 17.92284 | 142 ft | 59 kts | 189° |
| 2026-05-06 17:10 | 59.65754 | 17.92063 | 143 ft | 117 kts | 191° |
| 2026-05-06 17:10 | 59.64804 | 17.91719 | 174 ft | 157 kts | 187° |
| 2026-05-06 17:10 | 59.63754 | 17.91305 | 787 ft | 149 kts | 189° |
| 2026-05-06 17:10 | 59.62742 | 17.90911 | 1470 ft | 148 kts | 189° |
| 2026-05-06 17:11 | 59.61727 | 17.90532 | 2098 ft | 153 kts | 189° |
| 2026-05-06 17:11 | 59.60626 | 17.90117 | 2472 ft | 170 kts | 191° |
| 2026-05-06 17:11 | 59.59467 | 17.89116 | 2754 ft | 197 kts | 216° |
| 2026-05-06 17:11 | 59.58616 | 17.86892 | 3301 ft | 217 kts | 249° |
| 2026-05-06 17:12 | 59.58510 | 17.83888 | 4176 ft | 226 kts | 276° |
| 2026-05-06 17:12 | 59.58518 | 17.80725 | 4876 ft | 241 kts | 256° |
| 2026-05-06 17:12 | 59.57910 | 17.77523 | 5556 ft | 255 kts | 243° |
| 2026-05-06 17:12 | 59.57161 | 17.74299 | 6443 ft | 262 kts | 253° |
| 2026-05-06 17:13 | 59.56829 | 17.70727 | 7191 ft | 275 kts | 268° |
| 2026-05-06 17:13 | 59.56850 | 17.66819 | 7740 ft | 292 kts | 271° |
| 2026-05-06 17:13 | 59.56925 | 17.62824 | 8585 ft | 298 kts | 272° |
| 2026-05-06 17:13 | 59.57016 | 17.58734 | 9601 ft | 299 kts | 272° |
| 2026-05-06 17:14 | 59.57107 | 17.54620 | 10499 ft | 303 kts | 272° |
| 2026-05-06 17:14 | 59.57197 | 17.50434 | 11313 ft | 307 kts | 272° |
| 2026-05-06 17:14 | 59.57284 | 17.46206 | 12187 ft | 310 kts | 272° |
| 2026-05-06 17:14 | 59.57369 | 17.41922 | 13016 ft | 314 kts | 271° |
| 2026-05-06 17:15 | 59.57453 | 17.37565 | 13700 ft | 324 kts | 271° |
| 2026-05-06 17:15 | 59.57538 | 17.32978 | 13928 ft | 345 kts | 271° |
| 2026-05-06 17:15 | 59.57626 | 17.28229 | 14679 ft | 343 kts | 271° |
| 2026-05-06 17:15 | 59.57711 | 17.23615 | 15909 ft | 333 kts | 271° |
| 2026-05-06 17:16 | 59.57793 | 17.19044 | 16687 ft | 335 kts | 271° |
| 2026-05-06 17:16 | 59.57874 | 17.14398 | 17497 ft | 335 kts | 270° |
| 2026-05-06 17:16 | 59.57953 | 17.09830 | 18261 ft | 338 kts | 270° |
| 2026-05-06 17:16 | 59.58030 | 17.05240 | 18872 ft | 340 kts | 270° |
| 2026-05-06 17:17 | 59.58106 | 17.00566 | 19548 ft | 341 kts | 270° |
| 2026-05-06 17:17 | 59.58182 | 16.95873 | 20186 ft | 343 kts | 269° |
| 2026-05-06 17:17 | 59.58256 | 16.91150 | 20823 ft | 345 kts | 269° |
| 2026-05-06 17:17 | 59.58329 | 16.86399 | 21466 ft | 347 kts | 269° |
| 2026-05-06 17:18 | 59.58400 | 16.81620 | 22097 ft | 349 kts | 269° |
| 2026-05-06 17:18 | 59.58470 | 16.76813 | 22713 ft | 352 kts | 269° |
| 2026-05-06 17:18 | 59.58538 | 16.71975 | 23325 ft | 354 kts | 268° |
| 2026-05-06 17:18 | 59.58612 | 16.67109 | 23867 ft | 356 kts | 269° |
| 2026-05-06 17:19 | 59.58919 | 16.62221 | 24381 ft | 362 kts | 276° |
| 2026-05-06 17:19 | 59.59359 | 16.57389 | 24842 ft | 364 kts | 275° |
| 2026-05-06 17:19 | 59.59805 | 16.52392 | 25324 ft | 366 kts | 275° |
| 2026-05-06 17:19 | 59.60267 | 16.47512 | 25878 ft | 366 kts | 275° |
| 2026-05-06 17:20 | 59.60760 | 16.42568 | 26369 ft | 368 kts | 275° |
| 2026-05-06 17:20 | 59.61271 | 16.37587 | 26790 ft | 371 kts | 275° |
| 2026-05-06 17:20 | 59.61790 | 16.32573 | 27216 ft | 374 kts | 275° |
| 2026-05-06 17:20 | 59.62312 | 16.27533 | 27640 ft | 376 kts | 275° |
| 2026-05-06 17:21 | 59.62836 | 16.22466 | 28051 ft | 378 kts | 275° |
| 2026-05-06 17:21 | 59.63360 | 16.17364 | 28456 ft | 380 kts | 274° |
| 2026-05-06 17:21 | 59.63885 | 16.12235 | 28821 ft | 382 kts | 274° |
| 2026-05-06 17:21 | 59.64403 | 16.07147 | 29189 ft | 384 kts | 274° |
| 2026-05-06 17:22 | 59.64926 | 16.01967 | 29539 ft | 386 kts | 274° |
| 2026-05-06 17:22 | 59.65450 | 15.96750 | 29893 ft | 388 kts | 274° |
| 2026-05-06 17:22 | 59.65973 | 15.91504 | 30222 ft | 390 kts | 274° |
| 2026-05-06 17:22 | 59.66497 | 15.86228 | 30527 ft | 392 kts | 274° |
| 2026-05-06 17:23 | 59.67022 | 15.80906 | 30752 ft | 396 kts | 274° |
| 2026-05-06 17:23 | 59.67550 | 15.75543 | 31043 ft | 398 kts | 274° |
| 2026-05-06 17:23 | 59.68078 | 15.70160 | 31388 ft | 399 kts | 274° |
| 2026-05-06 17:23 | 59.68605 | 15.64770 | 31751 ft | 399 kts | 274° |
| 2026-05-06 17:24 | 59.69128 | 15.59389 | 32105 ft | 399 kts | 274° |
| 2026-05-06 17:24 | 59.69649 | 15.53998 | 32449 ft | 399 kts | 274° |
| 2026-05-06 17:24 | 59.70168 | 15.48602 | 32796 ft | 399 kts | 274° |
| 2026-05-06 17:24 | 59.70683 | 15.43211 | 33131 ft | 399 kts | 274° |
| 2026-05-06 17:25 | 59.71191 | 15.37882 | 33448 ft | 399 kts | 274° |
| 2026-05-06 17:25 | 59.71702 | 15.32480 | 33782 ft | 399 kts | 274° |
| 2026-05-06 17:25 | 59.72211 | 15.27083 | 34070 ft | 399 kts | 274° |
| 2026-05-06 17:25 | 59.72718 | 15.21680 | 34334 ft | 399 kts | 274° |
| 2026-05-06 17:26 | 59.73223 | 15.16270 | 34613 ft | 399 kts | 274° |
| 2026-05-06 17:26 | 59.73725 | 15.10861 | 34826 ft | 400 kts | 275° |
| 2026-05-06 17:26 | 59.74226 | 15.05437 | 35028 ft | 401 kts | 275° |
| 2026-05-06 17:26 | 59.74727 | 14.99996 | 35231 ft | 401 kts | 275° |
| 2026-05-06 17:27 | 59.75227 | 14.94542 | 35424 ft | 402 kts | 275° |
| 2026-05-06 17:27 | 59.75719 | 14.89150 | 35617 ft | 403 kts | 275° |
| 2026-05-06 17:27 | 59.76217 | 14.83668 | 35802 ft | 404 kts | 275° |
| 2026-05-06 17:27 | 59.76714 | 14.78171 | 35932 ft | 407 kts | 275° |
| 2026-05-06 17:28 | 59.77214 | 14.72607 | 35939 ft | 412 kts | 275° |
| 2026-05-06 17:28 | 59.78225 | 14.61284 | 35939 ft | 421 kts | 275° |
| 2026-05-06 17:29 | 59.79248 | 14.49727 | 35939 ft | 428 kts | 275° |
| 2026-05-06 17:29 | 59.79757 | 14.43965 | 35935 ft | 414 kts | 275° |
| 2026-05-06 17:29 | 59.80250 | 14.38380 | 35938 ft | 402 kts | 275° |
| 2026-05-06 17:30 | 59.81182 | 14.27597 | 35938 ft | 403 kts | 275° |
| 2026-05-06 17:30 | 59.82122 | 14.16597 | 35938 ft | 403 kts | 275° |
| 2026-05-06 17:31 | 59.83053 | 14.05623 | 35930 ft | 403 kts | 275° |
| 2026-05-06 17:31 | 59.83978 | 13.94623 | 35924 ft | 403 kts | 275° |
| 2026-05-06 17:32 | 59.84893 | 13.83614 | 35923 ft | 403 kts | 275° |
| 2026-05-06 17:32 | 59.85793 | 13.72677 | 35913 ft | 403 kts | 275° |
| 2026-05-06 17:33 | 59.86689 | 13.61668 | 35912 ft | 403 kts | 274° |
| 2026-05-06 17:33 | 59.87576 | 13.50654 | 35916 ft | 403 kts | 274° |
| 2026-05-06 17:34 | 59.88452 | 13.39643 | 35902 ft | 402 kts | 274° |
| 2026-05-06 17:34 | 59.89319 | 13.28634 | 35914 ft | 402 kts | 274° |
| 2026-05-06 17:35 | 59.90177 | 13.17605 | 35908 ft | 403 kts | 274° |
| 2026-05-06 17:35 | 59.91023 | 13.06643 | 35905 ft | 403 kts | 274° |
| 2026-05-06 17:36 | 59.92281 | 12.90066 | 35904 ft | 403 kts | 274° |
| 2026-05-06 17:36 | 59.93109 | 12.79008 | 35906 ft | 403 kts | 274° |
| 2026-05-06 17:37 | 59.93922 | 12.68009 | 35910 ft | 404 kts | 274° |
| 2026-05-06 17:37 | 59.94732 | 12.56926 | 35912 ft | 404 kts | 274° |
| 2026-05-06 17:38 | 59.95534 | 12.45825 | 35916 ft | 404 kts | 274° |
| 2026-05-06 17:38 | 59.96327 | 12.34704 | 35920 ft | 405 kts | 274° |
| 2026-05-06 17:39 | 59.97112 | 12.23575 | 35918 ft | 405 kts | 274° |
| 2026-05-06 17:39 | 59.97881 | 12.12514 | 35923 ft | 405 kts | 274° |
| 2026-05-06 17:40 | 59.98648 | 12.01357 | 35919 ft | 405 kts | 274° |
| 2026-05-06 17:40 | 59.99407 | 11.90180 | 35917 ft | 406 kts | 274° |
| 2026-05-06 17:41 | 60.00156 | 11.78995 | 35921 ft | 406 kts | 274° |
| 2026-05-06 17:41 | 60.00895 | 11.67807 | 35916 ft | 406 kts | 274° |
| 2026-05-06 17:42 | 60.01620 | 11.56691 | 35916 ft | 406 kts | 274° |
| 2026-05-06 17:42 | 60.02341 | 11.45494 | 35914 ft | 406 kts | 274° |
| 2026-05-06 17:43 | 60.03051 | 11.34301 | 35917 ft | 406 kts | 274° |
| 2026-05-06 17:43 | 60.03753 | 11.23088 | 35922 ft | 406 kts | 274° |
| 2026-05-06 17:44 | 60.04440 | 11.11956 | 35920 ft | 406 kts | 274° |
| 2026-05-06 17:44 | 60.05122 | 11.00755 | 35914 ft | 405 kts | 274° |
| 2026-05-06 17:45 | 60.05794 | 10.89562 | 35915 ft | 405 kts | 274° |
| 2026-05-06 17:45 | 60.06455 | 10.78371 | 35912 ft | 405 kts | 274° |
| 2026-05-06 17:46 | 60.07103 | 10.67257 | 35931 ft | 404 kts | 273° |
| 2026-05-06 17:46 | 60.07746 | 10.56063 | 35901 ft | 404 kts | 273° |
| 2026-05-06 17:47 | 60.08379 | 10.44873 | 35903 ft | 405 kts | 273° |
| 2026-05-06 17:47 | 60.09001 | 10.33667 | 35903 ft | 405 kts | 273° |
| 2026-05-06 17:48 | 60.09616 | 10.22447 | 35907 ft | 405 kts | 273° |
| 2026-05-06 17:48 | 60.10218 | 10.11298 | 35912 ft | 405 kts | 273° |
| 2026-05-06 17:49 | 60.10814 | 10.00057 | 35929 ft | 406 kts | 273° |
| 2026-05-06 17:49 | 60.11402 | 9.88793 | 35899 ft | 406 kts | 273° |
| 2026-05-06 17:50 | 60.11981 | 9.77516 | 35922 ft | 407 kts | 272° |
| 2026-05-06 17:50 | 60.12548 | 9.66283 | 35924 ft | 407 kts | 272° |
| 2026-05-06 17:51 | 60.13109 | 9.54967 | 35935 ft | 408 kts | 272° |
| 2026-05-06 17:51 | 60.13662 | 9.43631 | 35943 ft | 409 kts | 272° |
| 2026-05-06 17:52 | 60.14205 | 9.32299 | 35882 ft | 407 kts | 272° |
| 2026-05-06 17:52 | 60.14472 | 9.26659 | 35515 ft | 405 kts | 272° |
| 2026-05-06 17:52 | 60.14735 | 9.21046 | 35023 ft | 403 kts | 272° |
| 2026-05-06 17:53 | 60.14994 | 9.15465 | 34464 ft | 401 kts | 272° |
| 2026-05-06 17:53 | 60.15246 | 9.09981 | 33912 ft | 399 kts | 272° |
| 2026-05-06 17:53 | 60.15499 | 9.04451 | 33291 ft | 396 kts | 271° |
| 2026-05-06 17:53 | 60.15747 | 8.98978 | 32683 ft | 392 kts | 271° |
| 2026-05-06 17:54 | 60.15990 | 8.93557 | 32099 ft | 386 kts | 270° |
| 2026-05-06 17:54 | 60.16225 | 8.88245 | 31964 ft | 381 kts | 270° |
| 2026-05-06 17:54 | 60.16693 | 8.77450 | 31979 ft | 391 kts | 270° |
| 2026-05-06 17:55 | 60.17162 | 8.66584 | 31992 ft | 391 kts | 271° |
| 2026-05-06 17:55 | 60.17618 | 8.55783 | 31995 ft | 390 kts | 271° |
| 2026-05-06 17:56 | 60.18065 | 8.44914 | 31841 ft | 386 kts | 270° |
| 2026-05-06 17:56 | 60.18284 | 8.39576 | 31227 ft | 380 kts | 270° |
| 2026-05-06 17:56 | 60.18497 | 8.34319 | 30455 ft | 374 kts | 269° |
| 2026-05-06 17:57 | 60.18704 | 8.29169 | 29733 ft | 365 kts | 269° |
| 2026-05-06 17:57 | 60.18901 | 8.24129 | 28746 ft | 359 kts | 269° |
| 2026-05-06 17:57 | 60.19092 | 8.19154 | 27774 ft | 354 kts | 270° |
| 2026-05-06 17:57 | 60.19278 | 8.14251 | 26860 ft | 349 kts | 270° |
| 2026-05-06 17:58 | 60.19459 | 8.09420 | 25984 ft | 344 kts | 271° |
| 2026-05-06 17:58 | 60.19636 | 8.04652 | 25106 ft | 340 kts | 271° |
| 2026-05-06 17:58 | 60.19807 | 8.00014 | 24360 ft | 334 kts | 271° |
| 2026-05-06 17:58 | 60.19976 | 7.95393 | 23577 ft | 329 kts | 272° |
| 2026-05-06 17:59 | 60.20143 | 7.90830 | 22598 ft | 326 kts | 272° |
| 2026-05-06 17:59 | 60.20306 | 7.86306 | 21632 ft | 323 kts | 272° |
| 2026-05-06 17:59 | 60.20467 | 7.81820 | 20694 ft | 320 kts | 272° |
| 2026-05-06 17:59 | 60.20626 | 7.77366 | 19796 ft | 318 kts | 272° |
| 2026-05-06 18:00 | 60.20782 | 7.72951 | 18921 ft | 316 kts | 272° |
| 2026-05-06 18:00 | 60.20936 | 7.68556 | 18029 ft | 314 kts | 272° |
| 2026-05-06 18:00 | 60.21088 | 7.64187 | 17057 ft | 313 kts | 272° |
| 2026-05-06 18:00 | 60.21235 | 7.59897 | 16177 ft | 311 kts | 273° |
| 2026-05-06 18:01 | 60.21382 | 7.55569 | 15272 ft | 310 kts | 273° |
| 2026-05-06 18:01 | 60.21528 | 7.51247 | 14399 ft | 309 kts | 273° |
| 2026-05-06 18:01 | 60.21672 | 7.46932 | 13504 ft | 309 kts | 273° |
| 2026-05-06 18:01 | 60.21814 | 7.42617 | 12559 ft | 310 kts | 274° |
| 2026-05-06 18:02 | 60.21955 | 7.38290 | 11630 ft | 310 kts | 274° |
| 2026-05-06 18:02 | 60.22094 | 7.33954 | 10739 ft | 311 kts | 274° |
| 2026-05-06 18:02 | 60.22232 | 7.29640 | 10242 ft | 308 kts | 274° |
| 2026-05-06 18:02 | 60.22371 | 7.25288 | 10069 ft | 313 kts | 274° |
| 2026-05-06 18:03 | 60.22509 | 7.20927 | 10022 ft | 312 kts | 275° |
| 2026-05-06 18:03 | 60.22645 | 7.16577 | 10019 ft | 307 kts | 274° |
| 2026-05-06 18:03 | 60.22770 | 7.12462 | 10018 ft | 283 kts | 274° |
| 2026-05-06 18:03 | 60.22885 | 7.08671 | 10019 ft | 264 kts | 275° |
| 2026-05-06 18:04 | 60.22998 | 7.04976 | 10020 ft | 270 kts | 275° |
| 2026-05-06 18:04 | 60.23116 | 7.01230 | 10022 ft | 267 kts | 275° |
| 2026-05-06 18:04 | 60.23231 | 6.97481 | 10024 ft | 269 kts | 275° |
| 2026-05-06 18:04 | 60.23344 | 6.93714 | 10022 ft | 269 kts | 275° |
| 2026-05-06 18:05 | 60.23456 | 6.89964 | 10019 ft | 268 kts | 274° |
| 2026-05-06 18:05 | 60.23566 | 6.86216 | 10016 ft | 269 kts | 274° |
| 2026-05-06 18:05 | 60.23674 | 6.82473 | 10022 ft | 269 kts | 274° |
| 2026-05-06 18:05 | 60.23782 | 6.78719 | 10025 ft | 269 kts | 274° |
| 2026-05-06 18:06 | 60.23889 | 6.74960 | 10020 ft | 268 kts | 274° |
| 2026-05-06 18:06 | 60.23995 | 6.71268 | 10020 ft | 268 kts | 274° |
| 2026-05-06 18:06 | 60.24101 | 6.67520 | 10025 ft | 269 kts | 274° |
| 2026-05-06 18:06 | 60.24207 | 6.63753 | 10023 ft | 270 kts | 274° |
| 2026-05-06 18:07 | 60.24322 | 6.59994 | 10022 ft | 268 kts | 278° |
| 2026-05-06 18:07 | 60.24815 | 6.56394 | 10024 ft | 269 kts | 293° |
| 2026-05-06 18:07 | 60.25586 | 6.52708 | 10029 ft | 303 kts | 292° |
| 2026-05-06 18:07 | 60.26410 | 6.48696 | 10021 ft | 312 kts | 292° |
| 2026-05-06 18:08 | 60.27220 | 6.44749 | 10020 ft | 297 kts | 292° |
| 2026-05-06 18:08 | 60.27990 | 6.41010 | 10021 ft | 281 kts | 292° |
| 2026-05-06 18:08 | 60.28713 | 6.37526 | 10022 ft | 265 kts | 293° |
| 2026-05-06 18:08 | 60.29446 | 6.34010 | 10026 ft | 288 kts | 292° |
| 2026-05-06 18:09 | 60.30226 | 6.30170 | 10025 ft | 298 kts | 292° |
| 2026-05-06 18:09 | 60.31017 | 6.26283 | 10024 ft | 301 kts | 292° |
| 2026-05-06 18:09 | 60.31817 | 6.22375 | 10027 ft | 302 kts | 292° |
| 2026-05-06 18:09 | 60.32624 | 6.18445 | 10022 ft | 303 kts | 292° |
| 2026-05-06 18:10 | 60.33429 | 6.14522 | 10029 ft | 303 kts | 292° |
| 2026-05-06 18:10 | 60.34237 | 6.10585 | 10027 ft | 303 kts | 292° |
| 2026-05-06 18:10 | 60.35041 | 6.06656 | 10023 ft | 303 kts | 292° |
| 2026-05-06 18:10 | 60.35825 | 6.02816 | 9971 ft | 296 kts | 292° |
| 2026-05-06 18:11 | 60.36596 | 5.99034 | 9877 ft | 285 kts | 292° |
| 2026-05-06 18:11 | 60.37336 | 5.95402 | 9761 ft | 273 kts | 292° |
| 2026-05-06 18:11 | 60.38046 | 5.91905 | 9502 ft | 266 kts | 291° |
| 2026-05-06 18:11 | 60.38747 | 5.88449 | 9048 ft | 265 kts | 291° |
| 2026-05-06 18:12 | 60.39446 | 5.85006 | 8633 ft | 263 kts | 291° |
| 2026-05-06 18:12 | 60.40136 | 5.81605 | 8046 ft | 261 kts | 291° |
| 2026-05-06 18:12 | 60.40821 | 5.78219 | 7471 ft | 259 kts | 291° |
| 2026-05-06 18:12 | 60.41498 | 5.74855 | 6910 ft | 257 kts | 291° |
| 2026-05-06 18:13 | 60.42170 | 5.71509 | 6355 ft | 255 kts | 291° |
| 2026-05-06 18:13 | 60.42832 | 5.68211 | 6104 ft | 256 kts | 291° |
| 2026-05-06 18:13 | 60.43493 | 5.64912 | 6018 ft | 255 kts | 291° |
| 2026-05-06 18:13 | 60.44155 | 5.61597 | 5704 ft | 253 kts | 291° |
| 2026-05-06 18:14 | 60.44812 | 5.58314 | 5232 ft | 251 kts | 291° |
| 2026-05-06 18:14 | 60.45390 | 5.54975 | 4729 ft | 252 kts | 284° |
| 2026-05-06 18:14 | 60.45789 | 5.51535 | 4463 ft | 246 kts | 282° |
| 2026-05-06 18:14 | 60.46159 | 5.48253 | 4261 ft | 233 kts | 283° |
| 2026-05-06 18:15 | 60.46511 | 5.45101 | 4068 ft | 229 kts | 282° |
| 2026-05-06 18:15 | 60.46867 | 5.41933 | 4044 ft | 227 kts | 282° |
| 2026-05-06 18:15 | 60.47209 | 5.38896 | 4041 ft | 217 kts | 282° |
| 2026-05-06 18:15 | 60.47549 | 5.35910 | 4049 ft | 218 kts | 282° |
| 2026-05-06 18:16 | 60.47877 | 5.33008 | 4042 ft | 208 kts | 282° |
| 2026-05-06 18:16 | 60.47916 | 5.30122 | 4054 ft | 211 kts | 263° |
| 2026-05-06 18:16 | 60.47720 | 5.27187 | 4011 ft | 208 kts | 262° |
| 2026-05-06 18:16 | 60.47520 | 5.24305 | 3798 ft | 206 kts | 262° |
| 2026-05-06 18:17 | 60.47320 | 5.21436 | 3400 ft | 205 kts | 262° |
| 2026-05-06 18:17 | 60.47108 | 5.18587 | 3004 ft | 204 kts | 256° |
| 2026-05-06 18:17 | 60.46381 | 5.16180 | 2821 ft | 210 kts | 220° |
| 2026-05-06 18:17 | 60.45043 | 5.14997 | 3121 ft | 214 kts | 189° |
| 2026-05-06 18:18 | 60.43580 | 5.14874 | 3016 ft | 211 kts | 182° |
| 2026-05-06 18:18 | 60.42084 | 5.15122 | 2523 ft | 219 kts | 179° |
| 2026-05-06 18:18 | 60.40648 | 5.15593 | 2629 ft | 197 kts | 158° |
| 2026-05-06 18:18 | 60.39529 | 5.16803 | 2656 ft | 179 kts | 151° |
| 2026-05-06 18:19 | 60.38484 | 5.18008 | 2341 ft | 164 kts | 155° |
| 2026-05-06 18:19 | 60.37462 | 5.19082 | 1826 ft | 167 kts | 169° |
| 2026-05-06 18:19 | 60.36367 | 5.19650 | 1436 ft | 160 kts | 177° |
| 2026-05-06 18:19 | 60.35294 | 5.19832 | 1104 ft | 151 kts | 178° |
| 2026-05-06 18:20 | 60.34284 | 5.20127 | 837 ft | 140 kts | 173° |
| 2026-05-06 18:20 | 60.33372 | 5.20470 | 704 ft | 130 kts | 172° |
| 2026-05-06 18:20 | 60.32484 | 5.20764 | 532 ft | 129 kts | 172° |
| 2026-05-06 18:20 | 60.31606 | 5.21053 | 417 ft | 128 kts | 171° |
| 2026-05-06 18:21 | 60.30735 | 5.21352 | 253 ft | 126 kts | 172° |
| 2026-05-06 18:21 | 60.29872 | 5.21631 | 151 ft | 118 kts | 168° |
| 2026-05-06 18:21 | 60.29243 | 5.21830 | 157 ft | 63 kts | 172° |
| 2026-05-06 18:21 | 60.29000 | 5.21907 | 162 ft | 19 kts | 165° |
| 2026-05-06 18:22 | 60.28909 | 5.22030 | 163 ft | 10 kts | 94° |
| 2026-05-06 18:22 | 60.28922 | 5.22149 | 166 ft | 7 kts | 78° |
| 2026-05-06 18:22 | 60.28923 | 5.22166 | 167 ft | 0 kts | 78° |
| 2026-05-06 18:23 | 60.28931 | 5.22264 | 171 ft | 10 kts | 81° |
| 2026-05-06 18:23 | 60.28969 | 5.22386 | 175 ft | 12 kts | 19° |
| 2026-05-06 18:23 | 60.29024 | 5.22402 | 176 ft | 8 kts | 52° |
| 2026-05-06 18:24 | 60.28988 | 5.22530 | 175 ft | 14 kts | 131° |
| 2026-05-06 18:24 | 60.28964 | 5.22583 | 175 ft | 0 kts | 132° |